Time;durP1;ratioP1;P1;durP2;ratioP2;P2;SDS_P1;SDS_P2;PMS_P1;PMS_P2;Temp;Humidity;BMP_temperature;BMP_pressure;BME280_temperature;BME280_humidity;BME280_pressure;Samples;Min_cycle;Max_cycle;Signal;HPM_P1;HPM_P2
2022/09/12 00:00:43;;;;;;;15.03;11.60;;;13.60;99.90;;;;;;5079641;28;20443;-87
2022/09/12 00:03:10;;;;;;;11.67;10.47;;;13.60;99.90;;;;;;5079273;28;20487;-86
2022/09/12 00:05:41;;;;;;;11.40;10.20;;;13.60;99.90;;;;;;5079448;28;20772;-86
2022/09/12 00:08:08;;;;;;;11.87;10.77;;;13.60;99.90;;;;;;5079095;28;20446;-86
2022/09/12 00:10:38;;;;;;;10.93;9.83;;;13.60;99.90;;;;;;5079153;28;20466;-87
2022/09/12 00:13:05;;;;;;;11.33;10.30;;;13.60;99.90;;;;;;5079336;28;20450;-86
2022/09/12 00:15:32;;;;;;;11.27;10.20;;;13.50;99.90;;;;;;5078810;28;20478;-85
2022/09/12 00:18:00;;;;;;;12.90;11.80;;;13.50;99.90;;;;;;5079155;28;20455;-87
2022/09/12 00:20:26;;;;;;;12.03;10.87;;;13.50;99.90;;;;;;5059121;28;20432;-86
2022/09/12 00:22:54;;;;;;;11.90;10.80;;;13.40;99.90;;;;;;5059473;28;20491;-87
2022/09/12 00:25:25;;;;;;;10.43;9.37;;;13.40;99.90;;;;;;5059556;28;20472;-87
2022/09/12 00:28:08;;;;;;;14.30;12.30;;;13.40;99.90;;;;;;5059920;28;20456;-86
2022/09/12 00:30:52;;;;;;;10.93;9.93;;;13.40;99.90;;;;;;5059325;28;20455;-86
2022/09/12 00:33:31;;;;;;;10.63;9.73;;;13.40;99.90;;;;;;5058844;28;20451;-86
2022/09/12 00:35:57;;;;;;;12.87;11.60;;;13.40;99.90;;;;;;5059255;28;20546;-85
2022/09/12 00:38:24;;;;;;;10.87;9.83;;;13.40;99.90;;;;;;5058468;28;20967;-85
2022/09/12 00:40:51;;;;;;;11.03;10.03;;;13.30;99.90;;;;;;5059436;28;20452;-86
2022/09/12 00:43:35;;;;;;;11.83;10.73;;;13.30;99.90;;;;;;5066124;28;20510;-87
2022/09/12 00:46:13;;;;;;;11.83;10.63;;;13.30;99.90;;;;;;5078465;28;20909;-87
2022/09/12 00:48:46;;;;;;;11.73;10.73;;;13.30;99.90;;;;;;5077396;28;20444;-85
2022/09/12 00:51:14;;;;;;;12.07;10.97;;;13.30;99.90;;;;;;5078789;28;20447;-85
2022/09/12 00:53:43;;;;;;;10.23;9.33;;;13.20;99.90;;;;;;5064555;28;20460;-86
2022/09/12 00:56:15;;;;;;;11.53;10.53;;;13.20;99.90;;;;;;5058312;28;20810;-86
2022/09/12 00:58:47;;;;;;;12.13;10.93;;;13.20;99.90;;;;;;5069733;28;20443;-86
2022/09/12 01:01:14;;;;;;;11.03;10.03;;;13.10;99.90;;;;;;5078353;28;20440;-86
2022/09/12 01:03:42;;;;;;;11.23;10.13;;;13.10;99.90;;;;;;5077116;28;20871;-85
2022/09/12 01:06:16;;;;;;;11.33;10.17;;;13.10;99.90;;;;;;5077894;28;20447;-85
2022/09/12 01:08:44;;;;;;;10.57;9.57;;;13.10;99.90;;;;;;5064216;28;20444;-87
2022/09/12 01:11:12;;;;;;;11.07;9.97;;;13.10;99.90;;;;;;5063760;28;20452;-85
2022/09/12 01:13:40;;;;;;;11.57;10.23;;;13.10;99.90;;;;;;5059404;28;20498;-86
2022/09/12 01:16:08;;;;;;;11.23;10.23;;;13.10;99.90;;;;;;5058142;28;20440;-86
2022/09/12 01:18:55;;;;;;;12.20;11.17;;;13.00;99.90;;;;;;5057695;28;20452;-87
2022/09/12 01:21:36;;;;;;;11.03;10.03;;;13.00;99.90;;;;;;5057782;28;20444;-85
2022/09/12 01:24:33;;;;;;;12.07;10.87;;;13.00;99.90;;;;;;5057259;28;20496;-86
2022/09/12 01:27:33;;;;;;;9.93;8.93;;;12.90;99.90;;;;;;5057370;28;20925;-86
2022/09/12 01:30:23;;;;;;;10.70;9.77;;;12.90;99.90;;;;;;5057540;28;20462;-85
2022/09/12 01:33:22;;;;;;;11.13;10.13;;;12.90;99.90;;;;;;5057517;28;20462;-86
2022/09/12 01:36:05;;;;;;;10.50;9.50;;;12.80;99.90;;;;;;5064705;28;20484;-86
2022/09/12 01:38:36;;;;;;;10.33;9.23;;;12.80;99.90;;;;;;5077136;28;20440;-87
2022/09/12 01:41:11;;;;;;;12.43;11.20;;;12.80;99.90;;;;;;5076652;28;20940;-85
2022/09/12 01:43:47;;;;;;;11.53;10.30;;;12.80;99.90;;;;;;5076315;28;20829;-85
2022/09/12 01:46:18;;;;;;;12.20;11.00;;;12.80;99.90;;;;;;5077506;28;20485;-86
2022/09/12 01:48:52;;;;;;;10.90;9.90;;;12.80;99.90;;;;;;5077181;28;20445;-85
2022/09/12 01:51:25;;;;;;;12.20;10.97;;;12.70;99.90;;;;;;5077657;28;20472;-87
2022/09/12 01:53:58;;;;;;;12.17;11.03;;;12.70;99.90;;;;;;5060712;28;20456;-87
2022/09/12 01:56:27;;;;;;;15.60;13.70;;;12.70;99.90;;;;;;5056712;28;20466;-85
2022/09/12 01:59:00;;;;;;;16.13;13.33;;;12.70;99.90;;;;;;5056781;28;20458;-87
2022/09/12 02:01:32;;;;;;;14.93;13.13;;;12.70;99.90;;;;;;5056424;28;20455;-85
2022/09/12 02:04:07;;;;;;;16.47;14.77;;;12.70;99.90;;;;;;5056959;28;20502;-84
2022/09/12 02:06:39;;;;;;;20.30;15.83;;;12.70;99.90;;;;;;5062176;28;20482;-86
2022/09/12 02:09:10;;;;;;;16.50;14.90;;;12.70;99.90;;;;;;5056079;28;20440;-86
2022/09/12 02:11:42;;;;;;;15.83;14.03;;;12.70;99.90;;;;;;5062302;28;20470;-86
2022/09/12 02:14:13;;;;;;;13.63;12.33;;;12.70;99.90;;;;;;5076476;28;20991;-85
2022/09/12 02:16:45;;;;;;;12.33;11.10;;;12.70;99.90;;;;;;5059570;28;20445;-85
2022/09/12 02:19:16;;;;;;;12.47;11.27;;;12.60;99.90;;;;;;5056629;28;20438;-84
2022/09/12 02:21:49;;;;;;;12.80;11.70;;;12.70;99.90;;;;;;5056521;28;20841;-85
2022/09/12 02:24:18;;;;;;;11.53;10.53;;;12.60;99.90;;;;;;5056519;28;21005;-86
2022/09/12 02:26:49;;;;;;;13.50;11.73;;;12.60;99.90;;;;;;5056629;28;20475;-84
2022/09/12 02:29:16;;;;;;;13.20;11.90;;;12.60;99.90;;;;;;5056617;28;20463;-85
2022/09/12 02:31:46;;;;;;;11.63;10.63;;;12.60;99.90;;;;;;5056883;28;20804;-86
2022/09/12 02:34:25;;;;;;;14.03;12.57;;;12.50;99.90;;;;;;5061206;28;20498;-87
2022/09/12 02:37:00;;;;;;;12.67;11.47;;;12.50;99.90;;;;;;5076129;28;20455;-85
2022/09/12 02:39:27;;;;;;;14.20;12.13;;;12.50;99.90;;;;;;5069093;28;20447;-88
2022/09/12 02:41:56;;;;;;;13.47;11.67;;;12.50;99.90;;;;;;5056502;28;20450;-85
2022/09/12 02:44:25;;;;;;;12.80;11.50;;;12.50;99.90;;;;;;5062214;28;20487;-86
2022/09/12 02:46:58;;;;;;;13.03;11.37;;;12.40;99.90;;;;;;5075578;28;20447;-86
2022/09/12 02:49:25;;;;;;;12.17;10.97;;;12.40;99.90;;;;;;5069783;28;20462;-86
2022/09/12 02:51:52;;;;;;;13.13;11.23;;;12.40;99.90;;;;;;5055666;28;20457;-86
2022/09/12 02:54:20;;;;;;;14.17;12.87;;;12.40;99.90;;;;;;5063436;28;20485;-86
2022/09/12 02:56:47;;;;;;;14.70;13.43;;;12.40;99.90;;;;;;5076226;28;20501;-85
2022/09/12 02:59:18;;;;;;;13.83;12.30;;;12.30;99.90;;;;;;5060411;28;20452;-86
2022/09/12 03:01:59;;;;;;;15.07;13.10;;;12.30;99.90;;;;;;5056345;28;20440;-85
2022/09/12 03:04:50;;;;;;;13.10;11.60;;;12.30;99.90;;;;;;5055887;28;20487;-85
2022/09/12 03:07:27;;;;;;;13.43;12.03;;;12.30;99.90;;;;;;5056535;28;20462;-85
2022/09/12 03:10:04;;;;;;;14.00;12.60;;;12.30;99.90;;;;;;5056026;28;20432;-86
2022/09/12 03:12:42;;;;;;;12.90;11.67;;;12.20;99.90;;;;;;5055519;28;20444;-85
2022/09/12 03:15:27;;;;;;;15.30;11.67;;;12.20;99.90;;;;;;5055604;28;20475;-85
2022/09/12 03:18:06;;;;;;;12.20;10.93;;;12.20;99.90;;;;;;5070445;28;20447;-85
2022/09/12 03:20:43;;;;;;;11.60;10.53;;;12.20;99.90;;;;;;5075313;28;20931;-85
2022/09/12 03:23:17;;;;;;;11.23;10.13;;;12.20;99.90;;;;;;5075490;28;20443;-86
2022/09/12 03:25:48;;;;;;;12.33;11.03;;;12.20;99.90;;;;;;5075252;28;20487;-86
2022/09/12 03:28:17;;;;;;;10.87;9.80;;;12.20;99.90;;;;;;5075711;28;20449;-86
2022/09/12 03:30:46;;;;;;;13.93;12.53;;;12.20;99.90;;;;;;5073610;28;20459;-85
2022/09/12 03:33:16;;;;;;;13.67;12.30;;;12.10;99.90;;;;;;5075626;28;20462;-85
2022/09/12 03:35:43;;;;;;;13.10;11.70;;;12.10;99.90;;;;;;5062196;28;20465;-86
2022/09/12 03:38:10;;;;;;;12.50;11.17;;;12.10;99.90;;;;;;5063310;28;20458;-85
2022/09/12 03:40:37;;;;;;;12.30;11.10;;;12.10;99.90;;;;;;5070161;28;20458;-86
2022/09/12 03:43:05;;;;;;;13.87;11.60;;;12.10;99.90;;;;;;5079567;28;20465;-86
2022/09/12 03:45:32;;;;;;;11.63;10.50;;;12.10;99.90;;;;;;5066548;28;20492;-86
2022/09/12 03:47:59;;;;;;;11.83;10.87;;;12.10;99.90;;;;;;5075824;28;20462;-86
2022/09/12 03:50:27;;;;;;;14.00;11.70;;;12.10;99.90;;;;;;5075728;28;20819;-87
2022/09/12 03:52:54;;;;;;;10.93;9.63;;;12.10;99.90;;;;;;5076208;28;20470;-86
2022/09/12 03:55:21;;;;;;;11.90;10.83;;;12.00;99.90;;;;;;5055890;28;20466;-87
2022/09/12 03:57:47;;;;;;;13.07;11.90;;;12.00;99.90;;;;;;5055374;28;20459;-87
2022/09/12 04:00:15;;;;;;;12.77;11.47;;;12.00;99.90;;;;;;5055504;28;20454;-87
2022/09/12 04:02:42;;;;;;;12.60;11.10;;;12.00;99.90;;;;;;5055481;28;20459;-87
2022/09/12 04:05:09;;;;;;;12.40;10.90;;;12.00;99.90;;;;;;5054936;28;20491;-87
2022/09/12 04:07:37;;;;;;;11.47;10.37;;;12.00;99.90;;;;;;5055329;28;20456;-86
2022/09/12 04:10:04;;;;;;;11.97;10.80;;;12.00;99.90;;;;;;5071510;28;20466;-87
2022/09/12 04:12:31;;;;;;;13.87;12.57;;;12.00;99.90;;;;;;5075525;28;20486;-86
2022/09/12 04:14:58;;;;;;;13.87;12.57;;;12.00;99.90;;;;;;5075144;28;20516;-87
2022/09/12 04:17:25;;;;;;;15.97;13.00;;;12.00;99.90;;;;;;5075542;28;20485;-87
2022/09/12 04:19:51;;;;;;;12.60;11.50;;;12.00;99.90;;;;;;5062021;28;20471;-86
2022/09/12 04:22:19;;;;;;;13.07;11.77;;;11.90;99.90;;;;;;5055131;28;20455;-86
2022/09/12 04:24:48;;;;;;;13.17;11.87;;;11.90;99.90;;;;;;5054809;28;20483;-87
2022/09/12 04:27:15;;;;;;;13.10;11.70;;;11.90;99.90;;;;;;5059155;28;20529;-86
2022/09/12 04:29:41;;;;;;;13.03;11.73;;;11.90;99.90;;;;;;5077647;28;20962;-86
2022/09/12 04:32:08;;;;;;;14.30;12.80;;;11.90;99.90;;;;;;5078438;28;20455;-87
2022/09/12 04:34:36;;;;;;;13.93;11.67;;;11.90;99.90;;;;;;5078733;28;20471;-86
2022/09/12 04:37:02;;;;;;;14.20;11.80;;;11.90;99.90;;;;;;5062823;28;20466;-87
2022/09/12 04:39:29;;;;;;;13.00;11.80;;;11.80;99.90;;;;;;5073402;28;20458;-86
2022/09/12 04:41:57;;;;;;;12.17;11.07;;;11.80;99.90;;;;;;5078604;28;20454;-86
2022/09/12 04:44:24;;;;;;;13.40;12.03;;;11.80;99.90;;;;;;5078713;28;20901;-86
2022/09/12 04:46:51;;;;;;;12.07;10.87;;;11.80;99.90;;;;;;5065706;28;20459;-86
2022/09/12 04:52:00;;;;;;;12.17;10.93;;;11.80;99.90;;;;;;5058815;28;20805;-86
2022/09/12 04:54:27;;;;;;;11.90;10.50;;;11.80;99.90;;;;;;5058247;28;20475;-87
2022/09/12 04:56:54;;;;;;;13.53;12.33;;;11.70;99.90;;;;;;5058384;28;20444;-86
2022/09/12 04:59:23;;;;;;;13.13;11.73;;;11.80;99.90;;;;;;5057888;28;20455;-87
2022/09/12 05:01:50;;;;;;;12.97;11.80;;;11.70;99.90;;;;;;5058485;28;20456;-87
2022/09/12 05:04:17;;;;;;;12.50;11.13;;;11.70;99.90;;;;;;5058593;28;20536;-87
2022/09/12 05:06:46;;;;;;;12.20;11.10;;;11.70;99.90;;;;;;5058250;28;20451;-86
2022/09/12 05:09:14;;;;;;;13.37;12.03;;;11.70;99.90;;;;;;5058076;28;20466;-86
2022/09/12 05:11:43;;;;;;;13.80;12.20;;;11.70;99.90;;;;;;5058564;28;20487;-86
2022/09/12 05:14:11;;;;;;;12.27;11.10;;;11.70;99.90;;;;;;5058153;28;20482;-86
2022/09/12 05:16:40;;;;;;;12.10;10.97;;;11.70;99.90;;;;;;5058914;28;20456;-87
2022/09/12 05:19:08;;;;;;;12.60;11.33;;;11.80;99.90;;;;;;5058344;28;20465;-86
2022/09/12 05:21:34;;;;;;;14.20;12.90;;;11.80;99.90;;;;;;5058323;28;20457;-85
2022/09/12 05:24:02;;;;;;;12.67;11.47;;;11.80;99.90;;;;;;5071599;28;20478;-85
2022/09/12 05:26:28;;;;;;;16.30;13.50;;;11.80;99.90;;;;;;5078585;28;20489;-86
2022/09/12 05:28:55;;;;;;;15.60;12.70;;;11.80;99.90;;;;;;5077881;28;20446;-86
2022/09/12 05:31:24;;;;;;;13.87;11.10;;;11.80;99.90;;;;;;5078222;28;20787;-86
2022/09/12 05:33:54;;;;;;;15.03;13.53;;;11.80;99.90;;;;;;5069526;28;20463;-86
2022/09/12 05:36:23;;;;;;;16.20;14.53;;;11.90;99.90;;;;;;5058342;28;20882;-86
2022/09/12 05:38:51;;;;;;;15.80;14.10;;;11.90;99.90;;;;;;5062305;28;20458;-87
2022/09/12 05:41:19;;;;;;;19.97;12.67;;;11.90;99.90;;;;;;5057325;28;20458;-86
2022/09/12 05:43:47;;;;;;;19.23;13.50;;;12.00;99.90;;;;;;5068882;28;20462;-86
2022/09/12 05:46:16;;;;;;;15.30;13.73;;;12.00;99.90;;;;;;5078957;28;20498;-86
2022/09/12 05:54:23;;;;;;;19.80;14.47;;;12.10;99.90;;;;;;5059851;28;20682;-85
2022/09/12 05:57:29;;;;;;;17.70;15.80;;;12.20;99.90;;;;;;5059368;28;20474;-86
2022/09/12 05:59:57;;;;;;;23.87;16.30;;;12.20;99.90;;;;;;5056214;28;20467;-86
2022/09/12 06:02:27;;;;;;;27.03;15.13;;;12.30;99.90;;;;;;5058077;28;20463;-86
2022/09/12 06:05:00;;;;;;;22.70;15.80;;;12.30;99.90;;;;;;5076354;28;20489;-85
2022/09/12 06:07:30;;;;;;;21.67;15.40;;;12.40;99.90;;;;;;5069399;28;20519;-85
2022/09/12 06:10:34;;;;;;;19.00;17.00;;;12.50;99.90;;;;;;5057872;28;20502;-85
2022/09/12 06:13:03;;;;;;;22.30;18.43;;;12.50;99.90;;;;;;5076526;28;20837;-85
2022/09/12 06:15:30;;;;;;;22.53;18.33;;;12.60;99.90;;;;;;5076879;28;20862;-86
2022/09/12 06:17:57;;;;;;;27.37;19.93;;;12.70;99.90;;;;;;5081216;28;20435;-85
2022/09/12 06:20:24;;;;;;;25.50;20.53;;;12.80;99.90;;;;;;5088264;28;20450;-85
2022/09/12 06:22:54;;;;;;;23.33;20.73;;;12.80;99.90;;;;;;5088012;28;20436;-84
2022/09/12 06:25:21;;;;;;;24.30;20.77;;;12.90;99.90;;;;;;5076515;28;20492;-85
2022/09/12 06:27:49;;;;;;;26.17;23.53;;;13.00;99.90;;;;;;5057254;28;20514;-85
2022/09/12 06:30:16;;;;;;;27.03;22.53;;;13.10;99.90;;;;;;5057724;28;20515;-85
2022/09/12 06:32:43;;;;;;;25.00;22.30;;;13.10;99.90;;;;;;5076041;28;20482;-84
2022/09/12 06:35:10;;;;;;;27.57;21.90;;;13.20;99.90;;;;;;5076659;28;20522;-85
2022/09/12 06:37:36;;;;;;;24.73;21.77;;;13.30;99.90;;;;;;5076430;28;20521;-86
2022/09/12 06:40:08;;;;;;;24.37;21.67;;;13.30;99.90;;;;;;5058143;28;20456;-85
2022/09/12 06:42:39;;;;;;;23.77;19.17;;;13.40;99.90;;;;;;5056915;28;20460;-85
2022/09/12 06:45:07;;;;;;;24.97;22.20;;;13.50;99.90;;;;;;5075066;28;20483;-84
2022/09/12 06:47:34;;;;;;;21.10;18.67;;;13.60;99.90;;;;;;5076433;28;20459;-85
2022/09/12 06:50:00;;;;;;;24.20;19.33;;;13.70;99.90;;;;;;5059103;28;20459;-85
2022/09/12 06:52:28;;;;;;;29.63;21.60;;;13.80;99.90;;;;;;5063807;28;20459;-85
2022/09/12 06:54:54;;;;;;;22.80;20.27;;;13.80;99.90;;;;;;5075993;28;20526;-84
2022/09/12 06:57:26;;;;;;;25.20;19.63;;;13.90;99.90;;;;;;5068743;28;20445;-86
2022/09/12 06:59:59;;;;;;;18.53;16.63;;;14.00;99.90;;;;;;5057535;28;20438;-85
2022/09/12 07:02:36;;;;;;;23.43;17.57;;;14.10;99.90;;;;;;5066429;28;20467;-87
2022/09/12 07:07:51;;;;;;;20.27;18.17;;;14.30;99.90;;;;;;5069341;28;20457;-86
2022/09/12 07:10:20;;;;;;;18.90;16.50;;;14.50;99.90;;;;;;5076816;28;20439;-86
2022/09/12 07:12:51;;;;;;;23.20;16.30;;;14.50;99.90;;;;;;5074541;28;20460;-90
2022/09/12 07:15:18;;;;;;;19.60;16.77;;;14.60;99.90;;;;;;5074804;28;20468;-86
2022/09/12 07:17:46;;;;;;;17.87;14.10;;;14.70;99.90;;;;;;5072081;28;20449;-86
2022/09/12 07:20:24;;;;;;;16.53;12.37;;;14.80;99.90;;;;;;5072498;28;20974;-86
2022/09/12 07:22:51;;;;;;;15.40;13.90;;;15.00;99.90;;;;;;5065135;28;20497;-88
2022/09/12 07:25:18;;;;;;;16.90;12.30;;;15.10;99.90;;;;;;5071160;28;20494;-86
2022/09/12 07:27:44;;;;;;;14.17;11.53;;;15.20;99.90;;;;;;5072246;28;20827;-86
2022/09/12 07:30:13;;;;;;;12.37;11.13;;;15.30;99.90;;;;;;5079555;28;21041;-86
2022/09/12 07:32:40;;;;;;;13.50;12.23;;;15.40;99.90;;;;;;5073269;28;20457;-86
2022/09/12 07:35:07;;;;;;;11.87;10.00;;;15.50;99.90;;;;;;5058183;28;20862;-86
2022/09/12 07:37:34;;;;;;;11.80;10.70;;;15.60;99.90;;;;;;5056724;28;20946;-86
2022/09/12 07:40:01;;;;;;;12.77;11.47;;;15.80;99.90;;;;;;5055909;28;20471;-86
2022/09/12 07:42:30;;;;;;;13.30;10.60;;;15.90;99.90;;;;;;5056150;28;20484;-86
2022/09/12 07:44:57;;;;;;;12.27;11.07;;;16.10;99.90;;;;;;5055149;28;20476;-86
2022/09/12 07:47:27;;;;;;;11.73;10.63;;;16.20;99.90;;;;;;5055355;28;20469;-86
2022/09/12 07:49:55;;;;;;;10.97;9.93;;;16.30;99.90;;;;;;5054379;28;20966;-86
2022/09/12 07:52:29;;;;;;;12.33;11.13;;;16.40;99.90;;;;;;5056134;28;20459;-86
2022/09/12 07:54:57;;;;;;;10.73;9.80;;;16.50;99.90;;;;;;5055146;28;21116;-86
2022/09/12 07:57:27;;;;;;;10.40;9.30;;;16.60;99.90;;;;;;5054523;28;20556;-86
2022/09/12 07:59:57;;;;;;;10.73;9.70;;;16.70;99.90;;;;;;5054265;28;20461;-86
2022/09/12 08:02:43;;;;;;;9.30;8.43;;;16.80;99.90;;;;;;5054684;28;20529;-86
2022/09/12 08:05:21;;;;;;;10.03;9.17;;;17.00;99.90;;;;;;5056167;28;20493;-87
2022/09/12 08:11:04;;;;;;;8.90;8.00;;;17.20;99.90;;;;;;5057408;28;20454;-86
2022/09/12 08:14:09;;;;;;;10.53;9.40;;;17.30;99.90;;;;;;5056188;28;20537;-86
2022/09/12 08:19:38;;;;;;;8.90;8.10;;;17.60;99.90;;;;;;5056762;28;20459;-86
2022/09/12 08:22:11;;;;;;;9.17;8.27;;;17.70;99.90;;;;;;5057184;28;20436;-87
2022/09/12 08:27:20;;;;;;;7.57;6.87;;;17.90;99.90;;;;;;5057782;28;20566;-86
2022/09/12 08:29:46;;;;;;;11.03;7.50;;;18.00;99.90;;;;;;5057189;28;20455;-84
2022/09/12 08:32:23;;;;;;;10.00;7.70;;;18.10;99.90;;;;;;5064522;28;20463;-86
2022/09/12 08:38:19;;;;;;;7.17;6.60;;;18.40;99.90;;;;;;5054703;28;20523;-84
2022/09/12 08:40:53;;;;;;;8.03;7.00;;;18.60;99.90;;;;;;5068561;28;20829;-84
2022/09/12 08:43:35;;;;;;;7.20;6.37;;;18.70;99.90;;;;;;5074493;28;20582;-85
2022/09/12 08:46:08;;;;;;;6.60;5.80;;;18.80;99.90;;;;;;5060286;28;20475;-85
2022/09/12 08:48:36;;;;;;;7.37;5.73;;;18.90;99.90;;;;;;5054371;28;20455;-85
2022/09/12 08:51:05;;;;;;;6.50;6.10;;;19.00;99.90;;;;;;5055101;28;20469;-85
2022/09/12 08:53:35;;;;;;;9.53;6.73;;;19.10;99.90;;;;;;5054548;28;20451;-85
2022/09/12 08:56:07;;;;;;;10.17;5.67;;;19.30;99.90;;;;;;5054674;28;20467;-84
2022/09/12 08:58:40;;;;;;;6.30;5.40;;;19.30;99.90;;;;;;5054294;28;20513;-85
2022/09/12 09:04:52;;;;;;;6.20;5.60;;;19.50;99.90;;;;;;5054424;28;20518;-82
2022/09/12 09:08:19;;;;;;;5.80;5.20;;;19.60;99.90;;;;;;5048127;28;20480;-85
2022/09/12 09:11:25;;;;;;;5.07;4.73;;;19.80;99.90;;;;;;5060686;28;20455;-86
2022/09/12 09:14:48;;;;;;;5.87;5.17;;;19.90;99.90;;;;;;5063166;28;20462;-86
2022/09/12 09:17:29;;;;;;;4.53;4.23;;;20.00;99.90;;;;;;5040531;28;20448;-85
2022/09/12 09:20:17;;;;;;;5.07;4.63;;;20.10;99.90;;;;;;5071855;28;20450;-85
2022/09/12 09:22:50;;;;;;;4.47;4.10;;;20.20;99.90;;;;;;5077683;28;20976;-84
2022/09/12 09:25:21;;;;;;;4.10;3.80;;;20.30;99.90;;;;;;5073158;28;20496;-85
2022/09/12 09:28:09;;;;;;;4.63;4.23;;;20.40;99.90;;;;;;5069194;28;20451;-84
2022/09/12 09:30:37;;;;;;;4.50;3.70;;;20.50;99.90;;;;;;5073317;28;20452;-84
2022/09/12 09:33:45;;;;;;;4.60;4.20;;;20.60;99.90;;;;;;5056734;28;20485;-85
2022/09/12 09:36:50;;;;;;;4.97;4.57;;;20.60;99.90;;;;;;5055233;28;20867;-85
2022/09/12 09:39:43;;;;;;;4.77;4.33;;;20.80;99.90;;;;;;5073096;28;20448;-85
2022/09/12 09:42:42;;;;;;;3.80;3.50;;;20.90;99.90;;;;;;5053528;28;20452;-85
2022/09/12 09:45:28;;;;;;;3.97;3.67;;;21.00;99.90;;;;;;5060248;28;20472;-85
2022/09/12 09:48:36;;;;;;;4.37;4.00;;;21.10;99.90;;;;;;5035392;28;20515;-83
2022/09/12 09:51:50;;;;;;;4.47;3.97;;;21.30;99.90;;;;;;5053319;28;20532;-84
2022/09/12 09:54:21;;;;;;;3.50;3.20;;;21.50;99.90;;;;;;5053496;28;20466;-84
2022/09/12 09:57:03;;;;;;;3.67;3.37;;;21.70;99.70;;;;;;5053485;28;20450;-85
2022/09/12 09:59:34;;;;;;;4.43;3.63;;;21.80;99.90;;;;;;5056007;28;20454;-85
2022/09/12 10:05:13;;;;;;;5.63;3.20;;;22.10;98.40;;;;;;5065379;28;20471;-85
2022/09/12 10:07:50;;;;;;;4.27;3.47;;;22.20;97.70;;;;;;5051923;28;20492;-85
2022/09/12 10:14:01;;;;;;;4.00;3.20;;;22.50;97.70;;;;;;5050249;28;20437;-85
2022/09/12 10:17:00;;;;;;;2.83;2.63;;;22.70;97.50;;;;;;5053917;28;20452;-85
2022/09/12 10:22:48;;;;;;;2.80;2.60;;;23.10;95.80;;;;;;5071703;28;20429;-86
2022/09/12 10:25:18;;;;;;;2.43;2.33;;;23.30;96.20;;;;;;5064657;28;20557;-86
2022/09/12 10:27:51;;;;;;;3.60;3.30;;;23.50;95.80;;;;;;5072004;28;21067;-86
2022/09/12 10:30:23;;;;;;;4.20;3.90;;;23.70;95.00;;;;;;5072626;28;20436;-86
2022/09/12 10:32:51;;;;;;;2.60;2.40;;;23.90;94.70;;;;;;5073007;28;20547;-86
2022/09/12 10:35:20;;;;;;;2.83;2.67;;;24.00;94.10;;;;;;5072555;28;20532;-86
2022/09/12 10:37:58;;;;;;;2.83;2.67;;;24.20;94.40;;;;;;5072647;28;20820;-86
2022/09/12 10:40:27;;;;;;;6.77;2.40;;;24.40;93.20;;;;;;5072827;28;20416;-87
2022/09/12 10:42:56;;;;;;;2.30;2.20;;;24.60;91.70;;;;;;5072453;28;20534;-86
2022/09/12 10:45:27;;;;;;;5.83;3.03;;;24.70;90.00;;;;;;5072411;28;20484;-86
2022/09/12 10:47:57;;;;;;;2.73;2.63;;;24.80;89.90;;;;;;5072415;28;20500;-87
2022/09/12 10:50:26;;;;;;;3.40;3.10;;;24.90;89.50;;;;;;5072602;28;20458;-87
2022/09/12 10:52:55;;;;;;;2.83;2.63;;;24.90;87.90;;;;;;5074364;28;20534;-86
2022/09/12 10:55:29;;;;;;;3.23;2.53;;;25.00;88.60;;;;;;5072943;28;20996;-86
2022/09/12 10:58:19;;;;;;;2.83;2.63;;;25.20;90.10;;;;;;5072434;28;20449;-86
2022/09/12 11:00:58;;;;;;;2.03;1.93;;;25.70;87.00;;;;;;5072484;28;20428;-87
2022/09/12 11:03:46;;;;;;;3.23;2.13;;;26.20;86.50;;;;;;5072259;28;20457;-87
2022/09/12 11:06:17;;;;;;;2.70;2.50;;;26.60;81.90;;;;;;5072302;28;20472;-86
2022/09/12 11:08:58;;;;;;;2.07;1.97;;;27.20;81.40;;;;;;5071895;28;20425;-87
2022/09/12 11:11:52;;;;;;;1.70;1.60;;;27.70;80.90;;;;;;5072169;28;20451;-87
2022/09/12 11:14:34;;;;;;;2.73;2.53;;;28.40;75.30;;;;;;5072402;28;20475;-87
2022/09/12 11:17:09;;;;;;;2.00;1.90;;;29.20;73.50;;;;;;5072367;28;20459;-87
2022/09/12 11:19:58;;;;;;;2.50;2.40;;;30.00;70.20;;;;;;5071873;28;20837;-87
2022/09/12 11:22:40;;;;;;;2.10;2.00;;;30.80;68.50;;;;;;5071706;28;20951;-87
2022/09/12 11:25:23;;;;;;;1.90;1.80;;;31.50;66.20;;;;;;5072136;28;20560;-87
2022/09/12 11:28:03;;;;;;;2.00;1.90;;;32.00;58.50;;;;;;5071874;28;20450;-87
2022/09/12 11:30:39;;;;;;;1.80;1.70;;;32.40;58.00;;;;;;5072239;28;20440;-88
2022/09/12 11:33:33;;;;;;;2.17;2.00;;;32.50;55.60;;;;;;5072005;28;20450;-87
2022/09/12 11:36:07;;;;;;;2.73;2.53;;;32.70;56.70;;;;;;5072033;28;20551;-88
2022/09/12 11:38:51;;;;;;;2.13;1.93;;;32.70;53.60;;;;;;5074531;28;20905;-87
2022/09/12 11:41:27;;;;;;;1.83;1.73;;;33.00;55.30;;;;;;5076269;28;20444;-87
2022/09/12 11:44:02;;;;;;;1.73;1.63;;;33.50;54.10;;;;;;5076012;28;20545;-87
2022/09/12 11:46:35;;;;;;;9.00;2.50;;;34.10;52.30;;;;;;5076590;28;20469;-85
2022/09/12 11:49:10;;;;;;;1.77;1.70;;;34.30;49.10;;;;;;5075552;28;20455;-85
2022/09/12 11:51:41;;;;;;;2.10;2.00;;;34.60;47.10;;;;;;5075838;28;20460;-86
2022/09/12 11:54:17;;;;;;;2.07;1.97;;;34.80;46.80;;;;;;5075758;28;20557;-85
2022/09/12 11:56:49;;;;;;;2.83;1.80;;;34.90;47.40;;;;;;5075960;28;20489;-85
2022/09/12 11:59:27;;;;;;;2.40;1.60;;;35.20;47.00;;;;;;5075566;28;20452;-85
2022/09/12 12:01:58;;;;;;;1.77;1.67;;;35.20;44.60;;;;;;5075854;28;20439;-86
2022/09/12 12:04:32;;;;;;;2.57;2.37;;;35.20;43.70;;;;;;5075563;28;20474;-86
2022/09/12 12:07:04;;;;;;;2.10;2.00;;;35.10;43.20;;;;;;5075958;28;20994;-86
2022/09/12 12:09:31;;;;;;;1.90;1.80;;;35.10;45.20;;;;;;5075615;28;20513;-85
2022/09/12 12:12:05;;;;;;;2.80;1.90;;;35.30;45.00;;;;;;5075685;28;20864;-85
2022/09/12 12:14:38;;;;;;;2.10;1.90;;;35.60;43.40;;;;;;5075468;28;20479;-84
2022/09/12 12:17:14;;;;;;;2.00;1.90;;;35.60;43.80;;;;;;5075542;28;20487;-84
2022/09/12 12:19:41;;;;;;;1.67;1.60;;;35.80;45.00;;;;;;5075479;28;20469;-85
2022/09/12 12:22:25;;;;;;;2.03;1.83;;;36.10;41.90;;;;;;5075629;28;20465;-85
2022/09/12 12:25:08;;;;;;;1.80;1.70;;;36.40;41.10;;;;;;5076029;28;20447;-85
2022/09/12 12:28:00;;;;;;;2.40;2.20;;;36.70;40.50;;;;;;5075680;28;20440;-85
2022/09/12 12:31:02;;;;;;;1.70;1.60;;;36.90;39.30;;;;;;5076143;28;20873;-85
2022/09/12 12:33:56;;;;;;;1.67;1.57;;;36.90;39.80;;;;;;5075804;28;20454;-85
2022/09/12 12:36:39;;;;;;;1.80;1.70;;;36.90;38.60;;;;;;5075791;28;20435;-85
2022/09/12 12:39:49;;;;;;;1.97;1.87;;;37.20;39.80;;;;;;5075884;28;20440;-85
2022/09/12 12:43:06;;;;;;;1.90;1.80;;;37.70;38.10;;;;;;5075621;28;20456;-85
2022/09/12 12:46:01;;;;;;;1.73;1.63;;;37.70;36.60;;;;;;5076472;28;20994;-85
2022/09/12 12:48:46;;;;;;;1.30;1.20;;;37.20;37.00;;;;;;5075099;28;21035;-85
2022/09/12 12:51:55;;;;;;;1.50;1.40;;;37.10;37.10;;;;;;5076249;28;20443;-85
2022/09/12 12:54:53;;;;;;;1.50;1.40;;;37.10;35.70;;;;;;5076779;28;20475;-85
2022/09/12 12:57:45;;;;;;;1.20;1.20;;;37.00;36.60;;;;;;5076305;28;20486;-84
2022/09/12 13:00:28;;;;;;;1.07;1.07;;;37.00;36.10;;;;;;5056114;28;20459;-85
2022/09/12 13:03:01;;;;;;;1.00;1.00;;;37.20;36.80;;;;;;5076425;28;20466;-85
2022/09/12 13:05:37;;;;;;;1.10;1.10;;;37.40;36.00;;;;;;5077089;28;20474;-85
2022/09/12 13:08:19;;;;;;;1.40;1.30;;;37.70;35.00;;;;;;5076013;28;20451;-85
2022/09/12 13:10:52;;;;;;;1.83;1.50;;;38.10;36.20;;;;;;5077527;28;20457;-85
2022/09/12 13:13:28;;;;;;;1.40;1.30;;;38.60;35.10;;;;;;5076906;28;20447;-85
2022/09/12 13:15:58;;;;;;;1.27;1.27;;;39.00;33.30;;;;;;5077863;28;20479;-85
2022/09/12 13:18:42;;;;;;;1.30;1.20;;;39.20;32.40;;;;;;5077294;28;20540;-85
2022/09/12 13:21:13;;;;;;;1.40;1.30;;;39.20;31.90;;;;;;5077197;28;20460;-85
2022/09/12 13:23:44;;;;;;;1.13;1.13;;;39.10;31.00;;;;;;5077150;28;20513;-84
2022/09/12 13:26:25;;;;;;;1.13;1.13;;;39.10;31.40;;;;;;5077324;28;20949;-85
2022/09/12 13:29:12;;;;;;;1.30;1.20;;;39.10;30.70;;;;;;5076849;28;20493;-84
2022/09/12 13:31:45;;;;;;;1.23;1.13;;;39.20;31.60;;;;;;5076977;28;20462;-84
2022/09/12 13:34:19;;;;;;;1.73;1.63;;;39.30;31.60;;;;;;5077691;28;20459;-85
2022/09/12 13:40:03;;;;;;;3.30;1.37;;;39.00;30.50;;;;;;5066147;28;20957;-84
2022/09/12 13:43:09;;;;;;;1.23;1.23;;;39.00;31.30;;;;;;5077189;28;20435;-84
2022/09/12 13:45:39;;;;;;;1.10;1.10;;;39.20;30.90;;;;;;5077211;28;20463;-85
2022/09/12 13:48:13;;;;;;;1.30;1.30;;;39.10;30.70;;;;;;5075979;28;20452;-84
2022/09/12 13:51:23;;;;;;;1.07;1.07;;;39.00;29.80;;;;;;5076964;28;20451;-84
2022/09/12 13:54:00;;;;;;;2.77;0.97;;;39.00;30.20;;;;;;5073996;28;20554;-84